createdAt,value
2018-07-08T00:04:58.733Z,24.90
2018-07-08T00:10:02.308Z,24.80
2018-07-08T00:15:05.583Z,24.70
2018-07-08T00:20:08.857Z,24.70
2018-07-08T00:25:12.100Z,24.80
2018-07-08T00:30:15.360Z,25.00
2018-07-08T00:35:18.562Z,25.30
2018-07-08T00:40:21.917Z,25.50
2018-07-08T00:45:25.268Z,25.60
2018-07-08T00:50:28.548Z,25.70
2018-07-08T00:55:31.743Z,25.70
2018-07-08T01:00:36.453Z,25.80
2018-07-08T01:05:39.714Z,25.80
2018-07-08T01:10:43.002Z,25.90
2018-07-08T01:15:46.988Z,25.90
2018-07-08T01:20:50.729Z,25.90
2018-07-08T01:26:05.743Z,25.90
2018-07-08T01:31:09.847Z,25.90
2018-07-08T01:36:13.200Z,26.00
2018-07-08T01:41:16.439Z,26.00
2018-07-08T01:46:20.121Z,26.00
2018-07-08T01:51:23.326Z,26.00
2018-07-08T01:56:26.531Z,26.00
2018-07-08T02:01:29.853Z,26.00
2018-07-08T02:06:33.060Z,26.10
2018-07-08T02:11:36.281Z,26.00
2018-07-08T02:21:42.508Z,26.10
2018-07-08T02:26:45.855Z,26.10
2018-07-08T02:31:49.356Z,26.10
2018-07-08T02:36:52.607Z,26.10
2018-07-08T02:41:56.208Z,26.10
2018-07-08T02:46:59.848Z,26.10
2018-07-08T02:52:03.163Z,26.10
2018-07-08T02:57:06.440Z,26.10
2018-07-08T03:02:09.642Z,26.10
2018-07-08T03:07:13.248Z,26.10
2018-07-08T03:12:16.541Z,26.10
2018-07-08T03:17:19.944Z,26.10
2018-07-08T03:22:24.114Z,26.10
2018-07-08T03:27:27.313Z,26.10
2018-07-08T03:32:30.897Z,26.10
2018-07-08T03:37:34.146Z,26.10
2018-07-08T03:42:37.498Z,26.10
2018-07-08T03:47:40.788Z,26.20
2018-07-08T03:52:44.069Z,26.20
2018-07-08T03:57:47.413Z,26.20
2018-07-08T04:02:50.578Z,26.10
2018-07-08T04:07:53.824Z,26.10
2018-07-08T04:12:57.158Z,26.20
2018-07-08T04:18:08.013Z,26.20
2018-07-08T04:23:11.207Z,26.20
2018-07-08T04:28:14.401Z,26.20
2018-07-08T04:33:17.713Z,26.20
2018-07-08T04:38:20.908Z,26.20
2018-07-08T04:43:25.272Z,26.20
2018-07-08T04:48:28.937Z,26.20
2018-07-08T04:53:32.207Z,26.20
2018-07-08T04:58:35.436Z,26.20
2018-07-08T05:03:38.720Z,26.20
2018-07-08T05:08:42.153Z,26.20
2018-07-08T05:13:45.405Z,26.20
2018-07-08T05:18:48.756Z,26.20
2018-07-08T05:23:52.036Z,26.20
2018-07-08T05:28:55.273Z,26.30
2018-07-08T05:33:58.536Z,26.30
2018-07-08T05:39:01.984Z,26.30
2018-07-08T05:44:05.304Z,26.30
2018-07-08T05:49:08.817Z,26.30
2018-07-08T05:54:13.669Z,26.30
2018-07-08T05:59:16.919Z,26.30
2018-07-08T06:04:20.603Z,26.30
2018-07-08T06:09:24.218Z,26.30
2018-07-08T06:14:27.448Z,26.30
2018-07-08T06:19:30.655Z,26.30
2018-07-08T06:24:33.890Z,26.30
2018-07-08T06:29:37.307Z,26.30
2018-07-08T06:34:40.956Z,26.30
2018-07-08T06:39:44.140Z,26.30
2018-07-08T06:44:47.618Z,26.30
2018-07-08T06:49:51.071Z,26.30
2018-07-08T06:54:54.565Z,26.30
2018-07-08T06:59:57.800Z,26.30
2018-07-08T07:05:01.110Z,26.30
2018-07-08T07:10:04.710Z,26.30
2018-07-08T07:15:08.119Z,26.30
2018-07-08T07:20:11.491Z,26.30
2018-07-08T07:25:14.710Z,26.30
2018-07-08T07:30:17.964Z,26.40
2018-07-08T07:35:21.209Z,26.40
2018-07-08T07:40:24.450Z,26.40
2018-07-08T07:45:27.715Z,26.40
2018-07-08T07:50:31.324Z,26.40
2018-07-08T07:55:34.640Z,26.40
2018-07-08T08:00:37.874Z,26.40
2018-07-08T08:05:41.085Z,26.40
2018-07-08T08:10:44.619Z,26.40
2018-07-08T08:15:47.854Z,26.40
2018-07-08T08:20:51.348Z,26.40
2018-07-08T08:25:54.827Z,26.40
2018-07-08T08:30:58.388Z,26.40
2018-07-08T08:36:01.769Z,26.50
2018-07-08T08:41:05.012Z,26.50
2018-07-08T08:46:08.230Z,26.50
2018-07-08T08:51:11.626Z,26.50
2018-07-08T08:56:14.927Z,26.50
2018-07-08T09:01:18.650Z,26.60
2018-07-08T09:06:22.730Z,26.60
2018-07-08T09:11:26.079Z,26.60
2018-07-08T09:16:29.255Z,26.70
2018-07-08T09:21:32.503Z,26.50
2018-07-08T09:26:35.822Z,26.40
2018-07-08T09:31:39.289Z,26.40
2018-07-08T09:36:42.518Z,26.40
2018-07-08T09:41:46.649Z,26.60
2018-07-08T09:46:50.206Z,26.70
2018-07-08T09:51:53.576Z,26.60
2018-07-08T09:56:56.812Z,26.70
2018-07-08T10:02:00.068Z,26.50
2018-07-08T10:07:03.317Z,26.60
2018-07-08T10:12:06.603Z,26.60
2018-07-08T10:17:09.798Z,26.60
2018-07-08T10:22:13.223Z,26.70
2018-07-08T10:28:20.553Z,26.70
2018-07-08T10:33:23.773Z,26.60
2018-07-08T10:38:27.034Z,26.80
2018-07-08T10:43:30.251Z,26.70
2018-07-08T10:48:33.548Z,26.50
2018-07-08T10:53:36.802Z,26.70
2018-07-08T10:58:39.997Z,26.70
2018-07-08T11:03:43.809Z,26.70
2018-07-08T11:08:47.810Z,26.70
2018-07-08T11:13:51.555Z,26.60
2018-07-08T11:18:54.897Z,26.60
2018-07-08T11:23:58.342Z,26.60
2018-07-08T11:29:01.875Z,26.60
2018-07-08T11:34:05.245Z,26.60
2018-07-08T11:39:08.583Z,26.50
2018-07-08T11:44:11.790Z,26.60
2018-07-08T11:54:18.507Z,26.80
2018-07-08T11:59:21.711Z,26.50
2018-07-08T12:04:24.968Z,26.40
2018-07-08T12:09:28.531Z,26.50
2018-07-08T12:14:31.810Z,26.60
2018-07-08T12:19:35.043Z,26.60
2018-07-08T12:24:38.334Z,26.60
2018-07-08T12:29:41.773Z,26.60
2018-07-08T12:34:45.188Z,26.80
2018-07-08T12:39:48.427Z,26.90
2018-07-08T12:44:51.685Z,26.80
2018-07-08T12:49:54.955Z,26.70
2018-07-08T12:54:58.364Z,26.70
2018-07-08T13:00:01.582Z,26.60
2018-07-08T13:05:05.499Z,26.60
2018-07-08T13:10:09.318Z,26.60
2018-07-08T13:15:12.725Z,26.60
2018-07-08T13:20:16.083Z,26.60
2018-07-08T13:25:19.438Z,26.50
2018-07-08T13:30:22.653Z,26.50
2018-07-08T13:35:25.965Z,26.50
2018-07-08T13:40:29.607Z,26.50
2018-07-08T13:45:33.334Z,26.50
2018-07-08T13:50:36.786Z,26.50
2018-07-08T13:55:40.957Z,26.50
2018-07-08T14:00:44.589Z,26.50
2018-07-08T14:05:47.812Z,26.50
2018-07-08T14:10:51.249Z,26.50
2018-07-08T14:15:54.664Z,26.50
2018-07-08T14:20:57.896Z,26.60
2018-07-08T14:26:01.271Z,26.60
2018-07-08T14:31:04.639Z,26.60
2018-07-08T14:36:07.898Z,26.60
2018-07-08T14:41:11.169Z,26.60
2018-07-08T14:46:14.460Z,26.60
2018-07-08T14:51:17.788Z,26.60
2018-07-08T14:56:21.108Z,26.60
2018-07-08T15:01:24.439Z,26.60
2018-07-08T15:06:27.678Z,26.80
2018-07-08T15:11:31.167Z,26.70
2018-07-08T15:16:34.542Z,26.70
2018-07-08T15:21:37.944Z,26.70
2018-07-08T15:26:41.204Z,26.60
2018-07-08T15:31:44.543Z,26.70
2018-07-08T15:36:49.355Z,26.80
2018-07-08T15:41:52.714Z,26.70
2018-07-08T15:46:56.289Z,26.70
2018-07-08T15:51:59.912Z,26.70
2018-07-08T15:57:03.232Z,26.70
2018-07-08T16:02:07.072Z,26.70
2018-07-08T16:07:10.394Z,26.70
2018-07-08T16:12:13.632Z,26.90
2018-07-08T16:17:17.103Z,26.70
2018-07-08T16:22:21.021Z,26.70
2018-07-08T16:27:24.750Z,26.70
2018-07-08T16:32:27.987Z,26.70
2018-07-08T16:37:31.271Z,26.70
2018-07-08T16:42:35.433Z,26.70
2018-07-08T16:47:38.702Z,26.70
2018-07-08T16:52:42.026Z,26.70
2018-07-08T16:57:45.406Z,26.80
2018-07-08T17:02:48.715Z,26.80
2018-07-08T17:07:52.818Z,26.80
2018-07-08T17:12:56.403Z,26.80
2018-07-08T17:17:59.820Z,26.70
2018-07-08T17:23:02.983Z,26.70
2018-07-08T17:28:06.815Z,26.70
2018-07-08T17:33:10.358Z,26.70
2018-07-08T17:38:13.617Z,26.70
2018-07-08T17:43:16.949Z,26.70
2018-07-08T17:48:20.257Z,26.50
2018-07-08T17:53:23.671Z,26.50
2018-07-08T17:58:27.249Z,26.70
2018-07-08T18:03:30.545Z,26.50
2018-07-08T18:08:34.967Z,26.50
2018-07-08T18:13:38.692Z,26.60
2018-07-08T18:18:42.049Z,26.70
2018-07-08T18:23:45.292Z,26.60
2018-07-08T18:28:48.584Z,26.60
2018-07-08T18:33:51.887Z,26.50
2018-07-08T18:38:55.434Z,26.40
2018-07-08T18:43:58.791Z,26.50
2018-07-08T18:49:02.008Z,26.50
2018-07-08T18:54:05.506Z,26.40
2018-07-08T18:59:08.956Z,26.40
2018-07-08T19:04:12.449Z,26.40
2018-07-08T19:09:15.896Z,26.40
2018-07-08T19:14:19.375Z,26.40
2018-07-08T19:19:22.582Z,26.30
2018-07-08T19:29:28.918Z,26.20
2018-07-08T19:34:32.284Z,26.20
2018-07-08T19:39:35.572Z,26.20
2018-07-08T19:44:39.146Z,26.30
2018-07-08T19:49:43.334Z,26.30
2018-07-08T19:54:46.656Z,26.40
2018-07-08T19:59:50.138Z,26.40
2018-07-08T20:04:53.840Z,26.40
2018-07-08T20:09:57.106Z,26.40
2018-07-08T20:15:01.086Z,26.30
2018-07-08T20:20:04.743Z,26.20
2018-07-08T20:25:08.994Z,26.20
2018-07-08T20:30:12.394Z,26.10
2018-07-08T20:35:15.691Z,26.10
2018-07-08T20:40:19.246Z,26.10
2018-07-08T20:45:22.904Z,25.90
2018-07-08T20:50:26.769Z,25.80
2018-07-08T20:55:30.532Z,25.70
2018-07-08T21:00:34.766Z,25.40
2018-07-08T21:05:38.104Z,25.30
2018-07-08T21:10:41.820Z,25.40
2018-07-08T21:15:45.197Z,25.60
2018-07-08T21:20:48.737Z,25.40
2018-07-08T21:25:52.154Z,25.60
2018-07-08T21:30:55.640Z,25.70
2018-07-08T21:35:58.991Z,25.70
2018-07-08T21:41:02.203Z,25.80
2018-07-08T21:46:05.632Z,25.70
2018-07-08T21:51:09.132Z,25.60
2018-07-08T21:56:12.606Z,25.60
2018-07-08T22:01:21.248Z,25.50
2018-07-08T22:06:24.717Z,25.60
2018-07-08T22:11:28.512Z,25.50
2018-07-08T22:16:31.793Z,25.40
2018-07-08T22:21:35.016Z,25.40
2018-07-08T22:26:38.424Z,25.50
2018-07-08T22:31:41.719Z,25.40
2018-07-08T22:36:45.739Z,25.50
2018-07-08T22:41:49.374Z,25.40
2018-07-08T22:46:53.039Z,25.40
2018-07-08T22:51:56.373Z,25.40
2018-07-08T22:57:00.423Z,25.50
2018-07-08T23:02:15.107Z,25.60
2018-07-08T23:07:18.376Z,25.70
2018-07-08T23:12:22.127Z,25.70
2018-07-08T23:17:25.441Z,25.70
2018-07-08T23:22:40.009Z,25.70
2018-07-08T23:27:43.241Z,25.60
2018-07-08T23:32:46.483Z,25.60
2018-07-08T23:37:50.041Z,25.60
2018-07-08T23:42:53.529Z,25.70
2018-07-08T23:47:56.777Z,25.80
2018-07-08T23:53:00.114Z,25.80
2018-07-08T23:58:03.367Z,25.80
